createdAt,value
2022-10-21T00:02:53.115Z,8.35
2022-10-21T00:05:54.673Z,8.37
2022-10-21T00:08:56.358Z,8.39
2022-10-21T00:11:57.966Z,8.43
2022-10-21T00:14:59.672Z,8.46
2022-10-21T00:18:01.663Z,8.49
2022-10-21T00:21:12.840Z,8.52
2022-10-21T00:24:14.368Z,8.54
2022-10-21T00:27:15.989Z,8.55
2022-10-21T00:30:18.598Z,8.57
2022-10-21T00:33:20.510Z,8.59
2022-10-21T00:36:22.121Z,8.61
2022-10-21T00:39:23.803Z,8.61
2022-10-21T00:42:33.476Z,8.66
2022-10-21T00:45:34.993Z,8.68
2022-10-21T00:48:42.429Z,8.69
2022-10-21T00:51:47.781Z,8.70
2022-10-21T00:54:52.996Z,8.73
2022-10-21T00:57:55.879Z,8.75
2022-10-21T01:00:59.666Z,8.76
2022-10-21T01:04:03.447Z,8.76
2022-10-21T01:07:05.708Z,8.76
2022-10-21T01:10:07.836Z,8.77
2022-10-21T01:13:19.621Z,8.75
2022-10-21T01:16:30.842Z,8.74
2022-10-21T01:19:58.060Z,8.74
2022-10-21T01:23:30.512Z,8.73
2022-10-21T01:26:56.952Z,8.73
2022-10-21T01:30:14.220Z,8.73
2022-10-21T01:33:18.582Z,8.70
2022-10-21T01:36:44.612Z,8.69
2022-10-21T01:40:00.533Z,8.71
2022-10-21T01:43:14.463Z,8.72
2022-10-21T01:46:22.967Z,8.72
2022-10-21T01:49:35.795Z,8.73
2022-10-21T01:52:41.307Z,8.73
2022-10-21T01:55:45.314Z,8.72
2022-10-21T01:58:49.161Z,8.73
2022-10-21T02:01:52.236Z,8.73
2022-10-21T02:04:57.022Z,8.71
2022-10-21T02:07:58.618Z,8.71
2022-10-21T02:11:05.499Z,8.69
2022-10-21T02:14:23.464Z,8.68
2022-10-21T02:17:27.247Z,8.67
2022-10-21T02:20:31.987Z,8.64
2022-10-21T02:23:48.022Z,8.64
2022-10-21T02:26:49.802Z,8.64
2022-10-21T02:29:57.178Z,8.64
2022-10-21T02:33:48.327Z,8.63
2022-10-21T02:36:53.476Z,8.61
2022-10-21T02:40:12.125Z,8.60
2022-10-21T02:43:25.942Z,8.59
2022-10-21T02:46:36.871Z,8.59
2022-10-21T02:49:38.381Z,8.58
2022-10-21T02:52:40.180Z,8.57
2022-10-21T02:55:41.709Z,8.56
2022-10-21T02:58:43.212Z,8.56
2022-10-21T03:01:44.796Z,8.55
2022-10-21T03:04:46.329Z,8.54
2022-10-21T03:07:47.840Z,8.56
2022-10-21T03:10:53.081Z,8.55
2022-10-21T03:13:55.173Z,8.55
2022-10-21T03:16:56.714Z,8.57
2022-10-21T03:19:58.280Z,8.57
2022-10-21T03:23:00.949Z,8.57
2022-10-21T03:26:02.536Z,8.58
2022-10-21T03:29:04.088Z,8.59
2022-10-21T03:32:05.809Z,8.59
2022-10-21T03:35:08.038Z,8.58
2022-10-21T03:38:09.578Z,8.58
2022-10-21T03:41:11.101Z,8.58
2022-10-21T03:44:12.640Z,8.58
2022-10-21T03:47:14.203Z,8.58
2022-10-21T03:50:18.339Z,8.56
2022-10-21T03:53:42.099Z,8.56
2022-10-21T03:56:44.657Z,8.55
2022-10-21T03:59:46.173Z,8.54
2022-10-21T04:02:48.363Z,8.54
2022-10-21T04:05:49.876Z,8.55
2022-10-21T04:08:52.732Z,8.53
2022-10-21T04:11:54.342Z,8.53
2022-10-21T04:14:55.900Z,8.52
2022-10-21T04:17:57.472Z,8.50
2022-10-21T04:20:58.980Z,8.50
2022-10-21T04:24:00.524Z,8.50
2022-10-21T04:27:02.097Z,8.52
2022-10-21T04:30:04.374Z,8.52
2022-10-21T04:33:06.138Z,8.51
2022-10-21T04:36:07.976Z,8.52
2022-10-21T04:39:09.555Z,8.54
2022-10-21T04:42:11.135Z,8.56
2022-10-21T04:45:12.689Z,8.58
2022-10-21T04:48:14.204Z,8.62
2022-10-21T04:51:15.857Z,8.66
2022-10-21T04:54:17.528Z,8.69
2022-10-21T04:57:20.478Z,8.72
2022-10-21T05:00:22.052Z,8.73
2022-10-21T05:03:23.749Z,8.74
2022-10-21T05:06:25.365Z,8.75
2022-10-21T05:09:26.896Z,8.76
2022-10-21T05:12:28.441Z,8.78
2022-10-21T05:15:29.972Z,8.78
2022-10-21T05:18:31.713Z,8.79
2022-10-21T05:21:33.287Z,8.79
2022-10-21T05:24:34.881Z,8.81
2022-10-21T05:27:36.494Z,8.83
2022-10-21T05:30:38.108Z,8.84
2022-10-21T05:33:39.640Z,8.86
2022-10-21T05:36:41.175Z,8.89
2022-10-21T05:39:42.698Z,8.90
2022-10-21T05:42:45.704Z,8.91
2022-10-21T05:45:47.301Z,8.92
2022-10-21T05:51:55.261Z,8.96
2022-10-21T05:54:56.803Z,8.98
2022-10-21T05:57:59.435Z,9.00
2022-10-21T06:01:01.506Z,9.03
2022-10-21T06:04:03.119Z,9.05
2022-10-21T06:07:04.667Z,9.09
2022-10-21T06:10:06.705Z,9.09
2022-10-21T06:13:08.536Z,9.10
2022-10-21T06:16:11.857Z,9.13
2022-10-21T06:19:13.397Z,9.13
2022-10-21T06:22:15.403Z,9.14
2022-10-21T06:28:23.951Z,9.17
2022-10-21T06:31:25.559Z,9.19
2022-10-21T06:34:27.093Z,9.20
2022-10-21T06:37:28.622Z,9.22
2022-10-21T06:40:30.147Z,9.25
2022-10-21T06:43:32.033Z,9.29
2022-10-21T06:46:33.625Z,9.32
2022-10-21T06:49:35.220Z,9.33
2022-10-21T06:52:36.751Z,9.38
2022-10-21T06:55:38.307Z,9.41
2022-10-21T06:58:43.419Z,9.44
2022-10-21T07:02:01.128Z,9.46
2022-10-21T07:05:03.099Z,9.50
2022-10-21T07:08:04.971Z,9.52
2022-10-21T07:11:08.060Z,9.55
2022-10-21T07:14:09.639Z,9.59
2022-10-21T07:17:11.200Z,9.61
2022-10-21T07:20:12.741Z,9.64
2022-10-21T07:23:14.266Z,9.68
2022-10-21T07:26:15.820Z,9.72
2022-10-21T07:29:18.217Z,9.78
2022-10-21T07:32:19.789Z,9.83
2022-10-21T07:35:21.354Z,9.87
2022-10-21T07:38:23.000Z,9.94
2022-10-21T07:41:32.007Z,10.01
2022-10-21T07:44:33.544Z,10.07
2022-10-21T07:47:35.116Z,10.13
2022-10-21T07:50:37.323Z,10.19
2022-10-21T07:53:39.969Z,10.24
2022-10-21T07:56:44.409Z,10.31
2022-10-21T07:59:45.946Z,10.38
2022-10-21T08:02:47.510Z,10.44
2022-10-21T08:05:49.099Z,10.52
2022-10-21T08:08:50.761Z,10.58
2022-10-21T08:11:52.522Z,10.66
2022-10-21T08:14:54.041Z,10.73
2022-10-21T08:17:55.556Z,10.84
2022-10-21T08:20:57.148Z,10.92
2022-10-21T08:24:01.176Z,10.97
2022-10-21T08:27:05.109Z,11.02
2022-10-21T08:30:06.961Z,11.06
2022-10-21T08:33:08.544Z,11.09
2022-10-21T08:36:17.600Z,11.15
2022-10-21T08:39:19.215Z,11.22
2022-10-21T08:42:21.083Z,11.29
2022-10-21T08:45:39.021Z,11.37
2022-10-21T08:48:48.001Z,11.44
2022-10-21T08:51:58.785Z,11.52
2022-10-21T08:55:03.334Z,11.57
2022-10-21T08:58:05.923Z,11.66
2022-10-21T09:01:32.671Z,11.74
2022-10-21T09:04:53.255Z,11.81
2022-10-21T09:08:18.462Z,11.92
2022-10-21T09:11:35.436Z,12.02
2022-10-21T09:15:08.823Z,12.09
2022-10-21T09:18:21.364Z,12.15
2022-10-21T09:21:44.822Z,12.21
2022-10-21T09:24:53.310Z,12.25
2022-10-21T09:27:57.196Z,12.25
2022-10-21T09:31:02.454Z,12.26
2022-10-21T09:34:15.292Z,12.25
2022-10-21T09:37:42.098Z,12.26
2022-10-21T09:40:47.269Z,12.45
2022-10-21T09:43:49.757Z,12.72
2022-10-21T09:46:53.673Z,12.85
2022-10-21T09:50:08.399Z,12.93
2022-10-21T09:53:25.588Z,12.98
2022-10-21T09:56:35.862Z,13.01
2022-10-21T09:59:54.077Z,13.08
2022-10-21T10:02:55.605Z,13.19
2022-10-21T10:05:57.740Z,13.29
2022-10-21T10:09:14.454Z,13.39
2022-10-21T10:12:21.678Z,13.49
2022-10-21T10:15:31.483Z,13.68
2022-10-21T10:18:33.302Z,13.91
2022-10-21T10:21:34.857Z,14.09
2022-10-21T10:24:37.336Z,14.24
2022-10-21T10:27:50.964Z,14.41
2022-10-21T10:30:55.845Z,14.55
2022-10-21T10:34:03.580Z,14.75
2022-10-21T10:37:15.512Z,14.93
2022-10-21T10:40:23.433Z,15.11
2022-10-21T10:43:30.428Z,15.24
2022-10-21T10:46:33.860Z,15.38
2022-10-21T10:49:41.524Z,15.53
2022-10-21T10:52:43.105Z,15.68
2022-10-21T10:59:09.208Z,15.89
2022-10-21T11:02:11.487Z,15.96
2022-10-21T11:05:31.943Z,16.03
2022-10-21T11:08:41.356Z,16.14
2022-10-21T11:11:48.580Z,16.25
2022-10-21T11:14:53.253Z,16.35
2022-10-21T11:18:17.020Z,16.45
2022-10-21T11:21:53.461Z,16.50
2022-10-21T11:25:26.949Z,16.55
2022-10-21T11:28:56.845Z,16.64
2022-10-21T11:32:12.341Z,16.68
2022-10-21T11:35:17.090Z,16.70
2022-10-21T11:38:37.080Z,16.75
2022-10-21T11:41:48.857Z,16.77
2022-10-21T11:45:08.754Z,16.81
2022-10-21T11:48:28.324Z,16.85
2022-10-21T11:51:54.228Z,16.92
2022-10-21T11:55:08.721Z,16.98
2022-10-21T11:58:41.340Z,17.03
2022-10-21T12:02:10.829Z,17.04
2022-10-21T12:05:31.404Z,17.06
2022-10-21T12:08:43.180Z,17.08
2022-10-21T12:11:57.294Z,17.08
2022-10-21T12:15:02.587Z,17.10
2022-10-21T12:18:06.116Z,17.11
2022-10-21T12:21:15.972Z,17.12
2022-10-21T12:24:33.876Z,17.08
2022-10-21T12:27:44.436Z,17.06
2022-10-21T12:30:55.497Z,17.05
2022-10-21T12:33:57.851Z,17.03
2022-10-21T12:36:59.480Z,17.02
2022-10-21T12:40:13.756Z,17.03
2022-10-21T12:43:28.677Z,17.04
2022-10-21T12:46:47.108Z,17.03
2022-10-21T12:50:18.275Z,17.01
2022-10-21T12:53:31.672Z,16.99
2022-10-21T12:56:43.928Z,16.98
2022-10-21T12:59:45.428Z,16.96
2022-10-21T13:03:07.904Z,16.97
2022-10-21T13:06:09.576Z,16.99
2022-10-21T13:09:31.766Z,17.03
2022-10-21T13:12:33.684Z,17.04
2022-10-21T13:15:47.196Z,17.03
2022-10-21T13:18:59.149Z,17.01
2022-10-21T13:22:03.397Z,17.02
2022-10-21T13:25:31.548Z,17.02
2022-10-21T13:28:34.254Z,17.01
2022-10-21T13:31:36.377Z,17.02
2022-10-21T13:34:42.659Z,17.02
2022-10-21T13:38:03.644Z,17.01
2022-10-21T13:41:18.167Z,16.97
2022-10-21T13:44:27.607Z,16.99
2022-10-21T13:47:34.523Z,16.96
2022-10-21T13:50:40.455Z,16.95
2022-10-21T13:53:45.751Z,16.93
2022-10-21T13:56:47.937Z,16.94
2022-10-21T14:00:00.993Z,16.92
2022-10-21T14:03:05.218Z,16.90
2022-10-21T14:06:09.639Z,16.88
2022-10-21T14:09:20.788Z,16.86
2022-10-21T14:12:25.210Z,16.83
2022-10-21T14:15:39.660Z,16.77
2022-10-21T14:18:46.372Z,16.71
2022-10-21T14:21:52.473Z,16.64
2022-10-21T14:24:56.879Z,16.60
2022-10-21T14:28:01.411Z,16.57
2022-10-21T14:34:25.820Z,16.45
2022-10-21T14:37:41.681Z,16.35
2022-10-21T14:40:43.279Z,16.29
2022-10-21T14:43:46.193Z,16.26
2022-10-21T14:46:50.160Z,16.23
2022-10-21T14:49:59.857Z,16.22
2022-10-21T14:53:01.644Z,16.20
2022-10-21T14:56:06.624Z,16.18
2022-10-21T14:59:18.517Z,16.13
2022-10-21T15:02:25.400Z,16.10
2022-10-21T15:05:32.036Z,16.04
2022-10-21T15:08:33.667Z,16.01
2022-10-21T15:11:38.788Z,15.99
2022-10-21T15:14:40.384Z,15.95
2022-10-21T15:17:42.166Z,15.91
2022-10-21T15:20:54.300Z,15.88
2022-10-21T15:23:59.132Z,15.84
2022-10-21T15:27:02.011Z,15.80
2022-10-21T15:30:17.169Z,15.74
2022-10-21T15:33:18.701Z,15.68
2022-10-21T15:36:20.549Z,15.64
2022-10-21T15:39:22.128Z,15.61
2022-10-21T15:42:24.006Z,15.59
2022-10-21T15:45:25.644Z,15.57
2022-10-21T15:48:28.128Z,15.55
2022-10-21T15:51:29.670Z,15.50
2022-10-21T15:54:31.620Z,15.49
2022-10-21T15:57:33.208Z,15.45
2022-10-21T16:00:39.991Z,15.43
2022-10-21T16:03:44.022Z,15.40
2022-10-21T16:06:49.713Z,15.37
2022-10-21T16:09:51.340Z,15.32
2022-10-21T16:12:52.952Z,15.29
2022-10-21T16:15:55.026Z,15.27
2022-10-21T16:18:56.676Z,15.23
2022-10-21T16:21:58.219Z,15.22
2022-10-21T16:24:59.805Z,15.20
2022-10-21T16:28:01.728Z,15.19
2022-10-21T16:31:04.592Z,15.18
2022-10-21T16:34:06.130Z,15.35
2022-10-21T16:37:24.721Z,15.29
2022-10-21T16:40:33.117Z,15.27
2022-10-21T16:43:34.652Z,15.21
2022-10-21T16:46:49.288Z,15.21
2022-10-21T16:49:50.876Z,15.19
2022-10-21T16:52:52.459Z,15.18
2022-10-21T16:55:54.025Z,15.17
2022-10-21T16:58:55.886Z,15.15
2022-10-21T17:02:00.877Z,15.15
2022-10-21T17:05:02.467Z,15.13
2022-10-21T17:08:04.144Z,15.10
2022-10-21T17:11:07.986Z,15.12
2022-10-21T17:14:15.683Z,15.12
2022-10-21T17:17:18.961Z,15.08
2022-10-21T17:20:20.632Z,15.07
2022-10-21T17:23:23.469Z,15.07
2022-10-21T17:26:25.423Z,15.09
2022-10-21T17:29:26.984Z,15.07
2022-10-21T17:32:28.631Z,15.07
2022-10-21T17:35:30.285Z,15.06
2022-10-21T17:38:31.819Z,15.29
2022-10-21T17:41:33.659Z,15.42
2022-10-21T17:44:35.285Z,15.46
2022-10-21T17:47:37.091Z,15.45
2022-10-21T17:50:38.727Z,15.40
2022-10-21T17:53:40.278Z,15.36
2022-10-21T17:56:41.878Z,15.31
2022-10-21T17:59:44.757Z,15.27
2022-10-21T18:02:46.311Z,15.25
2022-10-21T18:05:47.911Z,15.20
2022-10-21T18:08:49.846Z,15.14
2022-10-21T18:11:51.444Z,15.10
2022-10-21T18:14:53.137Z,15.06
2022-10-21T18:17:55.149Z,15.03
2022-10-21T18:21:01.866Z,15.01
2022-10-21T18:24:04.868Z,14.99
2022-10-21T18:27:08.987Z,14.99
2022-10-21T18:30:11.141Z,14.95
2022-10-21T18:33:12.680Z,14.95
2022-10-21T18:36:15.915Z,14.95
2022-10-21T18:39:17.642Z,14.94
2022-10-21T18:42:19.512Z,14.88
2022-10-21T18:45:21.065Z,14.82
2022-10-21T18:48:22.660Z,14.81
2022-10-21T18:51:24.478Z,14.79
2022-10-21T18:54:26.060Z,14.76
2022-10-21T18:57:27.613Z,14.73
2022-10-21T19:00:29.212Z,14.70
2022-10-21T19:03:31.533Z,14.68
2022-10-21T19:06:42.008Z,14.66
2022-10-21T19:09:44.270Z,14.62
2022-10-21T19:12:45.826Z,14.63
2022-10-21T19:15:47.559Z,14.65
2022-10-21T19:18:49.252Z,14.66
2022-10-21T19:21:50.820Z,14.68
2022-10-21T19:24:52.825Z,14.68
2022-10-21T19:27:54.429Z,14.66
2022-10-21T19:30:56.009Z,14.64
2022-10-21T19:33:57.574Z,14.64
2022-10-21T19:36:59.091Z,14.65
2022-10-21T19:40:00.781Z,14.63
2022-10-21T19:43:02.326Z,14.65
2022-10-21T19:46:07.846Z,14.70
2022-10-21T19:49:11.984Z,14.75
2022-10-21T19:52:13.475Z,14.81
2022-10-21T19:55:16.220Z,14.85
2022-10-21T19:58:17.709Z,14.82
2022-10-21T20:01:22.681Z,14.83
2022-10-21T20:04:24.810Z,14.81
2022-10-21T20:07:26.437Z,14.82
2022-10-21T20:10:28.407Z,14.81
2022-10-21T20:13:30.529Z,14.82
2022-10-21T20:16:37.647Z,14.91
2022-10-21T20:19:39.220Z,14.88
2022-10-21T20:22:41.063Z,14.97
2022-10-21T20:25:47.845Z,14.92
2022-10-21T20:28:50.865Z,14.90
2022-10-21T20:31:52.458Z,14.91
2022-10-21T20:34:53.974Z,14.91
2022-10-21T20:37:55.900Z,14.90
2022-10-21T20:41:06.105Z,14.90
2022-10-21T20:44:12.213Z,14.90
2022-10-21T20:47:13.733Z,14.90
2022-10-21T20:50:15.485Z,14.93
2022-10-21T20:53:17.040Z,14.93
2022-10-21T20:56:19.352Z,14.89
2022-10-21T20:59:20.960Z,14.90
2022-10-21T21:02:22.497Z,14.90
2022-10-21T21:05:24.055Z,14.89
2022-10-21T21:08:25.565Z,14.90
2022-10-21T21:11:27.115Z,14.90
2022-10-21T21:14:28.705Z,14.86
2022-10-21T21:17:30.254Z,14.82
2022-10-21T21:20:31.845Z,14.81
2022-10-21T21:23:33.734Z,14.78
2022-10-21T21:26:37.849Z,14.77
2022-10-21T21:29:39.476Z,14.78
2022-10-21T21:32:41.111Z,14.76
2022-10-21T21:35:42.784Z,14.80
2022-10-21T21:38:44.356Z,14.85
2022-10-21T21:41:46.448Z,14.85
2022-10-21T21:44:48.388Z,14.83
2022-10-21T21:47:49.942Z,14.80
2022-10-21T21:50:51.627Z,14.89
2022-10-21T21:53:53.353Z,14.99
2022-10-21T21:57:15.993Z,15.04
2022-10-21T22:00:16.481Z,15.04
2022-10-21T22:03:18.009Z,15.00
2022-10-21T22:06:21.736Z,14.94
2022-10-21T22:09:23.357Z,14.87
2022-10-21T22:12:26.032Z,14.83
2022-10-21T22:15:47.034Z,14.80
2022-10-21T22:18:49.532Z,14.74
2022-10-21T22:21:51.052Z,14.70
2022-10-21T22:24:52.762Z,14.65
2022-10-21T22:27:54.286Z,14.59
2022-10-21T22:30:57.493Z,14.51
2022-10-21T22:34:00.837Z,14.45
2022-10-21T22:37:02.437Z,14.38
2022-10-21T22:40:04.360Z,14.32
2022-10-21T22:43:05.924Z,14.25
2022-10-21T22:49:29.179Z,14.07
2022-10-21T22:52:30.797Z,14.01
2022-10-21T22:55:32.721Z,13.95
2022-10-21T22:58:34.377Z,13.88
2022-10-21T23:01:36.007Z,13.79
2022-10-21T23:04:37.710Z,13.74
2022-10-21T23:07:39.266Z,13.66
2022-10-21T23:10:41.030Z,13.61
2022-10-21T23:13:56.095Z,13.55
2022-10-21T23:17:04.085Z,13.46
2022-10-21T23:20:06.349Z,13.40
2022-10-21T23:23:07.882Z,13.35
2022-10-21T23:26:09.630Z,13.28
2022-10-21T23:29:11.419Z,13.21
2022-10-21T23:32:12.988Z,13.14
2022-10-21T23:35:15.444Z,13.08
2022-10-21T23:38:17.189Z,13.02
2022-10-21T23:41:18.744Z,12.94
2022-10-21T23:44:20.458Z,12.86
2022-10-21T23:47:21.985Z,12.80
2022-10-21T23:50:23.853Z,12.75
2022-10-21T23:53:25.451Z,12.69
2022-10-21T23:56:27.059Z,12.66
2022-10-21T23:59:28.629Z,12.63
